Time;durP1;ratioP1;P1;durP2;ratioP2;P2;SDS_P1;SDS_P2;PMS_P1;PMS_P2;Temp;Humidity;BMP_temperature;BMP_pressure;BME280_temperature;BME280_humidity;BME280_pressure;Samples;Min_cycle;Max_cycle;Signal;HPM_P1;HPM_P2
2023/03/06 00:00:23;;;;;;;15.52;9.32;;;4.40;99.90;;;;;;5112430;28;20032;-46
2023/03/06 00:02:49;;;;;;;16.05;9.05;;;4.40;99.90;;;;;;5112436;28;20109;-44
2023/03/06 00:05:15;;;;;;;19.15;10.00;;;4.40;99.90;;;;;;5108612;27;20039;-48
2023/03/06 00:07:41;;;;;;;18.10;9.63;;;4.30;99.90;;;;;;5112784;27;20361;-45
2023/03/06 00:10:10;;;;;;;17.13;9.63;;;4.30;99.90;;;;;;5107992;28;20475;-45
2023/03/06 00:12:35;;;;;;;18.77;9.87;;;4.30;99.90;;;;;;5109166;27;20111;-50
2023/03/06 00:15:01;;;;;;;19.38;9.68;;;4.30;99.90;;;;;;5117529;27;20098;-49
2023/03/06 00:17:27;;;;;;;16.35;9.85;;;4.30;99.90;;;;;;5099741;27;20422;-50
2023/03/06 00:19:53;;;;;;;15.70;9.20;;;4.30;99.90;;;;;;5112878;28;20358;-52
2023/03/06 00:22:18;;;;;;;15.57;8.90;;;4.20;99.90;;;;;;5112601;28;20110;-51
2023/03/06 00:24:44;;;;;;;16.85;9.68;;;4.20;99.90;;;;;;5110812;28;20023;-52
2023/03/06 00:27:10;;;;;;;15.63;9.73;;;4.10;99.90;;;;;;5112167;28;20098;-45
2023/03/06 00:29:35;;;;;;;16.55;9.90;;;4.10;99.90;;;;;;5110957;28;20027;-44
2023/03/06 00:32:01;;;;;;;16.30;9.73;;;4.00;99.90;;;;;;5108373;28;20031;-48
2023/03/06 00:34:27;;;;;;;19.27;10.35;;;4.00;99.90;;;;;;5110900;28;20044;-48
2023/03/06 00:36:53;;;;;;;16.05;9.55;;;4.00;99.90;;;;;;5111691;28;20501;-50
2023/03/06 00:39:18;;;;;;;17.38;9.85;;;4.00;99.90;;;;;;5117025;27;20020;-54
2023/03/06 00:41:44;;;;;;;14.63;9.27;;;3.90;99.90;;;;;;5109394;28;20043;-50
2023/03/06 00:44:10;;;;;;;15.98;9.40;;;4.00;99.90;;;;;;5111605;28;20024;-51
2023/03/06 00:46:35;;;;;;;17.63;9.30;;;4.00;99.90;;;;;;5111554;28;20415;-51
2023/03/06 00:49:01;;;;;;;13.18;8.82;;;3.90;99.90;;;;;;5111620;28;20040;-52
2023/03/06 00:51:27;;;;;;;15.07;9.55;;;3.90;99.90;;;;;;5111763;28;20031;-46
2023/03/06 00:53:52;;;;;;;14.48;9.00;;;3.80;99.90;;;;;;5111918;28;20023;-50
2023/03/06 00:56:18;;;;;;;16.23;10.07;;;3.60;99.90;;;;;;5111472;28;20107;-51
2023/03/06 00:58:44;;;;;;;16.70;10.25;;;3.50;99.90;;;;;;5111780;28;20429;-56
2023/03/06 01:01:10;;;;;;;17.90;10.25;;;3.30;99.90;;;;;;5111616;28;20111;-51
2023/03/06 01:03:35;;;;;;;16.42;10.38;;;3.20;99.90;;;;;;5111586;28;20379;-47
2023/03/06 01:06:01;;;;;;;16.55;9.73;;;3.10;99.90;;;;;;5111608;28;20043;-50
2023/03/06 01:08:27;;;;;;;21.98;11.05;;;2.90;99.90;;;;;;5117785;27;20388;-47
2023/03/06 01:10:53;;;;;;;20.70;11.20;;;2.80;99.90;;;;;;5111653;28;20110;-48
2023/03/06 01:13:18;;;;;;;19.80;10.00;;;2.70;99.90;;;;;;5109718;28;20032;-54
2023/03/06 01:15:44;;;;;;;17.77;10.48;;;2.50;99.90;;;;;;5111340;28;20034;-46
2023/03/06 01:18:09;;;;;;;16.20;9.57;;;2.40;99.90;;;;;;5097166;28;20058;-48
2023/03/06 01:20:35;;;;;;;20.48;10.90;;;2.30;99.90;;;;;;5111504;28;20405;-51
2023/03/06 01:23:01;;;;;;;20.92;11.48;;;2.20;99.90;;;;;;5111228;28;20479;-44
2023/03/06 01:25:26;;;;;;;21.08;10.07;;;2.20;99.90;;;;;;5111295;28;20173;-44
2023/03/06 01:27:52;;;;;;;19.80;10.82;;;2.10;99.90;;;;;;5110757;28;20019;-49
2023/03/06 01:30:19;;;;;;;18.27;11.35;;;2.10;99.90;;;;;;5111227;28;20024;-44
2023/03/06 01:32:44;;;;;;;20.15;10.90;;;2.10;99.90;;;;;;5110757;28;20053;-49
2023/03/06 01:35:11;;;;;;;18.58;11.13;;;2.10;99.90;;;;;;5111008;28;20442;-46
2023/03/06 01:37:38;;;;;;;19.35;11.45;;;2.10;99.90;;;;;;5115483;28;20412;-44
2023/03/06 01:40:07;;;;;;;18.60;11.00;;;2.10;99.90;;;;;;5114516;27;20045;-51
2023/03/06 01:42:33;;;;;;;20.80;11.32;;;2.20;99.90;;;;;;5111769;28;20104;-44
2023/03/06 01:45:13;;;;;;;18.25;11.20;;;2.20;99.90;;;;;;5110537;28;20032;-47
2023/03/06 01:47:39;;;;;;;17.50;10.68;;;2.20;99.90;;;;;;5110733;28;20032;-45
2023/03/06 01:50:08;;;;;;;19.40;10.60;;;2.20;99.90;;;;;;5110686;28;20360;-44
2023/03/06 01:52:47;;;;;;;17.33;10.75;;;2.20;99.90;;;;;;5111934;28;20027;-44
2023/03/06 01:55:25;;;;;;;19.55;11.13;;;2.20;99.90;;;;;;5114959;28;20019;-44
2023/03/06 01:57:56;;;;;;;21.55;11.00;;;2.20;99.90;;;;;;5114758;28;20425;-48
2023/03/06 02:00:25;;;;;;;20.20;10.65;;;2.10;99.90;;;;;;5115074;28;20030;-48
2023/03/06 02:03:07;;;;;;;20.27;11.27;;;2.10;99.90;;;;;;5111782;27;20115;-44
2023/03/06 02:05:33;;;;;;;19.42;10.23;;;2.10;99.90;;;;;;5101504;27;20042;-45
2023/03/06 02:08:01;;;;;;;19.75;11.15;;;2.10;99.90;;;;;;5100037;27;20020;-52
2023/03/06 02:10:26;;;;;;;19.27;10.95;;;2.10;99.90;;;;;;5101833;27;20540;-50
2023/03/06 02:12:52;;;;;;;16.60;10.40;;;2.10;99.90;;;;;;5103462;27;20031;-44
2023/03/06 02:15:22;;;;;;;21.35;10.43;;;2.10;99.90;;;;;;5117155;27;20030;-48
2023/03/06 02:17:50;;;;;;;17.90;9.90;;;2.10;99.90;;;;;;5122492;27;20019;-44
2023/03/06 02:20:33;;;;;;;22.13;11.80;;;2.10;99.90;;;;;;5125713;27;20054;-46
2023/03/06 02:23:19;;;;;;;21.00;11.40;;;2.10;99.90;;;;;;5103550;28;20487;-49
2023/03/06 02:25:49;;;;;;;21.00;11.35;;;2.20;99.90;;;;;;5114445;28;20479;-46
2023/03/06 02:28:18;;;;;;;18.20;10.60;;;2.30;99.90;;;;;;5114452;28;20098;-44
2023/03/06 02:30:46;;;;;;;20.42;12.25;;;2.30;99.90;;;;;;5113859;28;20059;-44
2023/03/06 02:33:17;;;;;;;19.63;11.57;;;2.40;99.90;;;;;;5114004;28;20036;-43
2023/03/06 02:35:49;;;;;;;23.02;11.57;;;2.50;99.90;;;;;;5114006;28;20071;-44
2023/03/06 02:38:17;;;;;;;21.33;12.68;;;2.50;99.90;;;;;;5108950;27;20023;-43
2023/03/06 02:40:46;;;;;;;20.83;11.50;;;2.60;99.90;;;;;;5108715;28;20443;-47
2023/03/06 02:43:15;;;;;;;18.43;11.27;;;2.50;99.90;;;;;;5114369;28;20353;-44
2023/03/06 02:45:47;;;;;;;22.02;11.18;;;2.40;99.90;;;;;;5114177;28;20116;-44
2023/03/06 02:48:14;;;;;;;20.40;11.23;;;2.40;99.90;;;;;;5114588;28;20023;-44
2023/03/06 02:50:42;;;;;;;18.23;10.50;;;2.30;99.90;;;;;;5114124;28;20031;-44
2023/03/06 02:53:08;;;;;;;19.13;11.18;;;2.20;99.90;;;;;;5113419;28;20386;-43
2023/03/06 02:55:35;;;;;;;19.00;10.57;;;2.20;99.90;;;;;;5114028;28;20506;-44
2023/03/06 02:58:01;;;;;;;21.33;12.63;;;2.20;99.90;;;;;;5113820;28;20031;-44
2023/03/06 03:00:28;;;;;;;22.60;11.35;;;2.10;99.90;;;;;;5113779;28;20020;-46
2023/03/06 03:02:53;;;;;;;20.33;12.07;;;2.10;99.90;;;;;;5113630;28;20019;-45
2023/03/06 03:05:19;;;;;;;21.38;12.10;;;2.00;99.90;;;;;;5111306;28;20514;-43
2023/03/06 03:07:45;;;;;;;22.20;12.15;;;2.00;99.90;;;;;;5121460;27;20487;-49
2023/03/06 03:10:11;;;;;;;22.73;12.98;;;2.00;99.90;;;;;;5114158;27;20049;-43
2023/03/06 03:12:37;;;;;;;20.50;12.40;;;1.90;99.90;;;;;;5103162;28;20380;-45
2023/03/06 03:15:04;;;;;;;21.75;11.95;;;1.80;99.90;;;;;;5109594;28;20020;-45
2023/03/06 03:17:30;;;;;;;19.88;11.98;;;1.70;99.90;;;;;;5113662;28;20027;-43
2023/03/06 03:19:55;;;;;;;20.83;12.07;;;1.70;99.90;;;;;;5113527;28;20032;-43
2023/03/06 03:22:21;;;;;;;19.08;11.13;;;1.60;99.90;;;;;;5113641;28;20058;-44
2023/03/06 03:24:47;;;;;;;22.92;11.35;;;1.60;99.90;;;;;;5113533;28;20031;-43
2023/03/06 03:27:13;;;;;;;21.50;12.27;;;1.60;99.90;;;;;;5113285;28;20399;-44
2023/03/06 03:29:40;;;;;;;24.55;12.57;;;1.60;99.90;;;;;;5113466;28;20034;-45
2023/03/06 03:32:06;;;;;;;21.85;12.90;;;1.60;99.90;;;;;;5113385;28;20027;-43
2023/03/06 03:34:32;;;;;;;20.77;12.15;;;1.60;99.90;;;;;;5113200;28;20048;-43
2023/03/06 03:36:57;;;;;;;25.33;13.55;;;1.50;99.90;;;;;;5115927;27;20444;-44
2023/03/06 03:39:23;;;;;;;24.83;13.65;;;1.50;99.90;;;;;;5111739;27;20064;-43
2023/03/06 03:41:49;;;;;;;24.83;12.80;;;1.50;99.90;;;;;;5113061;28;20072;-44
2023/03/06 03:44:15;;;;;;;24.00;13.52;;;1.50;99.90;;;;;;5113161;28;20038;-43
2023/03/06 03:46:40;;;;;;;24.33;12.73;;;1.40;99.90;;;;;;5113095;28;20032;-44
2023/03/06 03:49:06;;;;;;;21.65;13.07;;;1.40;99.90;;;;;;5112923;28;20118;-45
2023/03/06 03:51:32;;;;;;;20.13;12.52;;;1.40;99.90;;;;;;5113039;28;20471;-48
2023/03/06 03:53:58;;;;;;;26.73;13.23;;;1.30;99.90;;;;;;5111437;28;20024;-48
2023/03/06 03:56:24;;;;;;;24.80;13.45;;;1.30;99.90;;;;;;5113882;27;20020;-46
2023/03/06 03:58:50;;;;;;;24.67;13.10;;;1.20;99.90;;;;;;5111552;28;20024;-43
2023/03/06 04:01:16;;;;;;;25.95;13.30;;;1.20;99.90;;;;;;5112758;27;20487;-45
2023/03/06 04:03:42;;;;;;;26.20;12.82;;;1.30;99.90;;;;;;5112798;28;20113;-48
2023/03/06 04:06:07;;;;;;;23.92;13.45;;;1.20;99.90;;;;;;5112558;28;20501;-48
2023/03/06 04:08:34;;;;;;;22.27;12.30;;;1.20;99.90;;;;;;5112374;28;20024;-49
2023/03/06 04:10:59;;;;;;;24.98;12.90;;;1.20;99.90;;;;;;5111994;28;20024;-44
2023/03/06 04:13:26;;;;;;;21.05;12.68;;;1.20;99.90;;;;;;5097815;28;20419;-50
2023/03/06 04:15:53;;;;;;;20.27;12.07;;;1.20;99.90;;;;;;5112141;28;20498;-43
2023/03/06 04:18:20;;;;;;;23.85;13.32;;;1.20;99.90;;;;;;5112309;28;20027;-44
2023/03/06 04:20:47;;;;;;;20.90;12.77;;;1.20;99.90;;;;;;5112503;28;20122;-44
2023/03/06 04:23:13;;;;;;;23.08;13.10;;;1.20;99.90;;;;;;5107189;28;20030;-48
2023/03/06 04:25:39;;;;;;;24.45;12.25;;;1.20;99.90;;;;;;5111780;28;20545;-49
2023/03/06 04:28:05;;;;;;;20.92;13.07;;;1.10;99.90;;;;;;5117048;27;20019;-44
2023/03/06 04:30:31;;;;;;;22.40;12.40;;;1.10;99.90;;;;;;5112123;28;20019;-46
2023/03/06 04:32:57;;;;;;;21.55;13.00;;;1.10;99.90;;;;;;5112022;28;20430;-43
2023/03/06 04:35:23;;;;;;;23.13;12.60;;;1.00;99.90;;;;;;5111802;28;20059;-49
2023/03/06 04:37:48;;;;;;;21.85;13.27;;;1.00;99.90;;;;;;5110759;28;20054;-43
2023/03/06 04:40:20;;;;;;;22.67;13.40;;;0.90;99.90;;;;;;5111943;28;20020;-44
2023/03/06 04:42:46;;;;;;;20.10;12.57;;;0.90;99.90;;;;;;5111914;28;20019;-48
2023/03/06 04:45:12;;;;;;;23.05;13.23;;;0.80;99.90;;;;;;5112003;28;20031;-43
2023/03/06 04:47:38;;;;;;;22.52;12.93;;;0.80;99.90;;;;;;5111724;28;20486;-45
2023/03/06 04:50:05;;;;;;;25.90;13.02;;;0.70;99.90;;;;;;5111858;28;20035;-44
2023/03/06 04:52:30;;;;;;;24.02;13.30;;;0.60;99.90;;;;;;5111508;28;20076;-43
2023/03/06 04:54:56;;;;;;;24.42;13.10;;;0.50;99.90;;;;;;5111604;28;20106;-48
2023/03/06 04:57:22;;;;;;;26.55;14.10;;;0.50;99.90;;;;;;5111510;28;20388;-46
2023/03/06 04:59:49;;;;;;;27.23;13.90;;;0.40;99.90;;;;;;5111988;28;20031;-44
2023/03/06 05:02:16;;;;;;;27.52;14.32;;;0.40;99.90;;;;;;5111739;28;20040;-44
2023/03/06 05:04:42;;;;;;;23.02;13.25;;;0.30;99.90;;;;;;5111465;27;20068;-46
2023/03/06 05:07:07;;;;;;;25.15;14.40;;;0.30;99.90;;;;;;5111552;28;20391;-44
2023/03/06 05:09:33;;;;;;;26.10;13.65;;;0.20;99.90;;;;;;5111230;28;20024;-45
2023/03/06 05:11:59;;;;;;;25.13;14.07;;;0.20;99.90;;;;;;5106784;28;20028;-49
2023/03/06 05:14:29;;;;;;;29.50;14.05;;;0.20;99.90;;;;;;5120635;27;20028;-49
2023/03/06 05:16:54;;;;;;;29.17;15.15;;;0.20;99.90;;;;;;5111367;28;20069;-44
2023/03/06 05:19:20;;;;;;;28.27;14.93;;;0.30;99.90;;;;;;5121207;27;20433;-52
2023/03/06 05:21:46;;;;;;;26.65;14.15;;;0.40;99.90;;;;;;5111142;28;20099;-49
2023/03/06 05:24:12;;;;;;;24.38;13.48;;;0.40;99.90;;;;;;5112579;27;20028;-51
2023/03/06 05:26:37;;;;;;;24.42;13.80;;;0.50;99.90;;;;;;5111077;28;20459;-43
2023/03/06 05:29:03;;;;;;;26.83;13.48;;;0.50;99.90;;;;;;5122173;27;20341;-44
2023/03/06 05:31:29;;;;;;;25.25;14.25;;;0.60;99.90;;;;;;5111284;28;20059;-47
2023/03/06 05:33:56;;;;;;;25.30;14.00;;;0.70;99.90;;;;;;5123128;27;20114;-49
2023/03/06 05:36:22;;;;;;;26.75;14.13;;;0.70;99.90;;;;;;5111267;28;20624;-46
2023/03/06 05:38:47;;;;;;;23.38;13.10;;;0.70;99.90;;;;;;5111016;28;20103;-45
2023/03/06 05:41:14;;;;;;;26.75;13.85;;;0.80;99.90;;;;;;5111135;28;20024;-50
2023/03/06 05:43:39;;;;;;;25.92;13.70;;;0.80;99.90;;;;;;5119888;28;20038;-45
2023/03/06 05:46:06;;;;;;;25.33;13.50;;;0.70;99.90;;;;;;5111228;28;20032;-44
2023/03/06 05:48:33;;;;;;;24.33;12.27;;;0.60;99.90;;;;;;5110484;28;20020;-50
2023/03/06 05:51:00;;;;;;;23.25;12.90;;;0.50;99.90;;;;;;5110780;28;20034;-46
2023/03/06 05:53:25;;;;;;;28.20;12.50;;;0.40;99.90;;;;;;5112550;28;20023;-43
2023/03/06 05:55:59;;;;;;;24.25;13.18;;;0.40;99.90;;;;;;5110834;28;20035;-43
2023/03/06 05:58:25;;;;;;;24.60;12.80;;;0.30;99.90;;;;;;5110935;28;20031;-44
2023/03/06 06:00:51;;;;;;;23.42;13.65;;;0.10;99.90;;;;;;5110831;28;20053;-45
2023/03/06 06:03:18;;;;;;;26.02;13.77;;;0.20;99.90;;;;;;5114407;28;20032;-43
2023/03/06 06:05:43;;;;;;;25.88;14.07;;;0.10;99.90;;;;;;5110771;28;20402;-43
2023/03/06 06:08:09;;;;;;;24.90;14.40;;;0.20;99.90;;;;;;5109319;28;20119;-43
2023/03/06 06:10:34;;;;;;;28.50;15.10;;;0.20;99.90;;;;;;5110956;28;20059;-43
2023/03/06 06:13:00;;;;;;;25.08;14.65;;;0.30;99.90;;;;;;5113978;28;20091;-43
2023/03/06 06:15:27;;;;;;;30.90;14.95;;;0.40;99.90;;;;;;5111347;28;20023;-43
2023/03/06 06:17:56;;;;;;;25.63;13.68;;;0.40;99.90;;;;;;5118173;28;20024;-49
2023/03/06 06:20:23;;;;;;;24.95;14.13;;;0.40;99.90;;;;;;5112664;28;20019;-47
2023/03/06 06:22:48;;;;;;;28.38;14.88;;;0.40;99.90;;;;;;5110166;28;20032;-44
2023/03/06 06:25:14;;;;;;;25.27;13.70;;;0.50;99.90;;;;;;5113775;28;20036;-44
2023/03/06 06:27:41;;;;;;;23.80;14.13;;;0.60;99.90;;;;;;5115914;28;20415;-50
2023/03/06 06:30:07;;;;;;;25.92;14.80;;;0.70;99.90;;;;;;5109244;28;20032;-46
2023/03/06 06:32:33;;;;;;;27.52;14.93;;;0.80;99.90;;;;;;5116014;28;20019;-47
2023/03/06 06:34:59;;;;;;;30.35;16.38;;;0.90;99.90;;;;;;5116111;27;20095;-45
2023/03/06 06:37:27;;;;;;;25.08;14.63;;;1.00;99.90;;;;;;5119657;27;20507;-43
2023/03/06 06:39:53;;;;;;;29.02;14.13;;;1.10;99.90;;;;;;5124990;27;20027;-44
2023/03/06 06:42:18;;;;;;;24.38;14.60;;;1.10;99.90;;;;;;5116316;27;20091;-46
2023/03/06 06:44:44;;;;;;;25.40;14.50;;;1.10;99.90;;;;;;5123860;27;20015;-46
2023/03/06 06:47:10;;;;;;;27.00;14.88;;;1.10;99.90;;;;;;5127263;27;20023;-47
2023/03/06 06:49:35;;;;;;;25.05;14.10;;;1.10;99.90;;;;;;5120599;27;20357;-46
2023/03/06 06:52:01;;;;;;;27.35;15.27;;;1.10;99.90;;;;;;5127506;27;20031;-44
2023/03/06 06:54:27;;;;;;;29.25;16.33;;;1.20;99.90;;;;;;5123356;27;20024;-50
2023/03/06 06:56:53;;;;;;;30.75;16.05;;;1.30;99.90;;;;;;5125613;27;20090;-53
2023/03/06 06:59:19;;;;;;;29.95;15.13;;;1.50;99.90;;;;;;5125279;27;20026;-48
2023/03/06 07:01:44;;;;;;;30.58;14.13;;;1.70;99.90;;;;;;5123340;27;20076;-48
2023/03/06 07:04:13;;;;;;;23.85;13.30;;;2.00;99.90;;;;;;5127058;27;20023;-44
2023/03/06 07:06:39;;;;;;;22.67;13.90;;;2.10;99.90;;;;;;5120466;27;20500;-43
2023/03/06 07:09:05;;;;;;;22.40;13.77;;;2.30;99.90;;;;;;5114282;27;20092;-47
2023/03/06 07:11:30;;;;;;;22.30;13.88;;;2.30;99.90;;;;;;5117833;27;20027;-47
2023/03/06 07:13:56;;;;;;;22.00;13.23;;;2.40;99.90;;;;;;5100287;28;20023;-44
2023/03/06 07:16:22;;;;;;;23.65;13.20;;;2.60;99.90;;;;;;5112385;27;20080;-43
2023/03/06 07:18:48;;;;;;;22.42;13.40;;;2.70;99.90;;;;;;5120901;27;20024;-44
2023/03/06 07:21:14;;;;;;;20.98;12.40;;;2.70;99.90;;;;;;5122623;27;20094;-43
2023/03/06 07:23:40;;;;;;;27.63;14.73;;;2.80;99.90;;;;;;5121264;27;20432;-47
2023/03/06 07:26:06;;;;;;;21.88;13.35;;;2.80;99.90;;;;;;5120193;27;20036;-44
2023/03/06 07:28:32;;;;;;;24.90;13.63;;;2.90;99.90;;;;;;5132602;27;20051;-46
2023/03/06 07:30:58;;;;;;;21.20;12.65;;;2.90;99.90;;;;;;5119557;27;20038;-47
2023/03/06 07:33:23;;;;;;;22.02;13.20;;;2.90;99.90;;;;;;5124258;27;20031;-44
2023/03/06 07:35:49;;;;;;;21.33;13.68;;;2.80;99.90;;;;;;5120107;27;20035;-49
2023/03/06 07:38:15;;;;;;;27.10;14.30;;;2.80;99.90;;;;;;5122236;27;20012;-46
2023/03/06 07:40:41;;;;;;;22.60;14.40;;;2.70;99.90;;;;;;5121266;27;20022;-44
2023/03/06 07:43:06;;;;;;;22.10;14.02;;;2.70;99.90;;;;;;5119166;27;20024;-44
2023/03/06 07:45:32;;;;;;;24.30;14.80;;;2.60;99.90;;;;;;5109893;27;20032;-47
2023/03/06 07:47:58;;;;;;;24.30;14.55;;;2.70;99.90;;;;;;5115827;27;20015;-44
2023/03/06 07:50:24;;;;;;;26.00;14.00;;;2.70;99.90;;;;;;5112096;27;20063;-44
2023/03/06 07:52:50;;;;;;;26.60;14.15;;;2.70;99.90;;;;;;5115516;27;20089;-43
2023/03/06 07:55:16;;;;;;;22.08;13.23;;;2.80;99.90;;;;;;5117363;27;20023;-46
2023/03/06 07:57:42;;;;;;;21.10;12.80;;;2.80;99.90;;;;;;5118047;27;20012;-44
2023/03/06 08:00:12;;;;;;;20.25;12.10;;;2.70;99.90;;;;;;5116250;27;20030;-48
2023/03/06 08:02:38;;;;;;;25.48;12.65;;;2.70;99.90;;;;;;5120216;27;20011;-50
2023/03/06 08:05:04;;;;;;;22.08;13.43;;;2.60;99.90;;;;;;5105637;27;20054;-47
2023/03/06 08:07:29;;;;;;;23.13;12.38;;;2.60;99.90;;;;;;5126998;27;20031;-49
2023/03/06 08:09:55;;;;;;;22.02;13.02;;;2.60;99.90;;;;;;5120743;27;20095;-46
2023/03/06 08:12:21;;;;;;;21.98;13.27;;;2.60;99.90;;;;;;5112331;27;20035;-46
2023/03/06 08:14:46;;;;;;;23.60;13.35;;;2.70;99.90;;;;;;5106041;28;20031;-49
2023/03/06 08:17:12;;;;;;;21.35;12.70;;;2.70;99.90;;;;;;5112108;28;20455;-52
2023/03/06 08:19:37;;;;;;;22.33;12.95;;;2.80;99.90;;;;;;5112034;28;20027;-56
2023/03/06 08:22:05;;;;;;;21.95;13.32;;;2.90;99.90;;;;;;5112155;28;20027;-55
2023/03/06 08:24:31;;;;;;;20.50;12.68;;;3.00;99.90;;;;;;5107192;28;20035;-53
2023/03/06 08:26:57;;;;;;;20.60;12.05;;;3.10;99.90;;;;;;5108559;27;20502;-47
2023/03/06 08:29:22;;;;;;;22.15;12.32;;;3.20;99.90;;;;;;5094365;28;20103;-55
2023/03/06 08:31:48;;;;;;;20.42;12.30;;;3.30;99.90;;;;;;5112462;27;20032;-52
2023/03/06 08:34:16;;;;;;;19.23;11.38;;;3.40;99.90;;;;;;5112116;28;20036;-44
2023/03/06 08:36:42;;;;;;;20.85;11.40;;;3.60;99.90;;;;;;5112025;28;20065;-46
2023/03/06 08:39:09;;;;;;;19.90;11.77;;;3.70;99.90;;;;;;5112167;27;20733;-44
2023/03/06 08:41:35;;;;;;;17.45;11.48;;;3.90;99.90;;;;;;5121779;27;20042;-50
2023/03/06 08:44:01;;;;;;;22.20;12.63;;;4.00;99.90;;;;;;5121083;27;20028;-54
2023/03/06 08:46:28;;;;;;;19.45;12.20;;;4.20;99.90;;;;;;5111760;28;20039;-46
2023/03/06 08:48:54;;;;;;;19.02;11.98;;;4.30;99.90;;;;;;5110152;27;20063;-45
2023/03/06 08:51:21;;;;;;;20.13;12.45;;;4.40;99.90;;;;;;5111633;27;20109;-49
2023/03/06 08:53:47;;;;;;;20.83;11.80;;;4.50;99.90;;;;;;5111507;28;20089;-49
2023/03/06 08:56:21;;;;;;;19.52;11.40;;;4.70;99.90;;;;;;5111497;28;20023;-52
2023/03/06 08:58:47;;;;;;;19.10;11.45;;;4.90;99.90;;;;;;5111817;28;20020;-48
2023/03/06 09:01:21;;;;;;;20.48;11.70;;;5.10;99.90;;;;;;5111783;27;20015;-46
2023/03/06 09:03:48;;;;;;;19.88;10.48;;;5.30;99.90;;;;;;5109751;27;20102;-47
2023/03/06 09:06:15;;;;;;;16.58;9.88;;;5.50;99.90;;;;;;5109894;27;20040;-44
2023/03/06 09:08:42;;;;;;;17.00;10.48;;;5.60;99.90;;;;;;5128708;27;20475;-44
2023/03/06 09:11:09;;;;;;;15.93;10.98;;;5.70;99.90;;;;;;5111584;27;20019;-47
2023/03/06 09:13:35;;;;;;;17.40;11.35;;;5.70;99.90;;;;;;5097826;28;20058;-45
2023/03/06 09:16:01;;;;;;;19.73;11.93;;;5.70;99.90;;;;;;5112357;27;20055;-46
2023/03/06 09:18:28;;;;;;;17.50;11.15;;;5.70;99.90;;;;;;5112885;27;20126;-50
2023/03/06 09:20:54;;;;;;;18.98;11.07;;;5.90;99.90;;;;;;5112096;27;20507;-50
2023/03/06 09:23:20;;;;;;;17.42;10.45;;;6.20;99.90;;;;;;5098600;28;20024;-47
2023/03/06 09:25:55;;;;;;;16.75;10.57;;;6.50;99.90;;;;;;5111144;27;20776;-50
2023/03/06 09:28:21;;;;;;;17.35;9.82;;;6.90;99.90;;;;;;5093825;27;20028;-46
2023/03/06 09:30:46;;;;;;;15.20;9.50;;;7.30;99.90;;;;;;5093655;28;20078;-51
2023/03/06 09:33:13;;;;;;;16.25;9.85;;;7.50;99.90;;;;;;5107517;28;20468;-45
2023/03/06 09:35:50;;;;;;;15.77;9.85;;;7.60;99.90;;;;;;5111231;28;20032;-45
2023/03/06 09:38:17;;;;;;;14.02;9.85;;;7.50;99.90;;;;;;5110584;28;20028;-45
2023/03/06 09:41:01;;;;;;;16.13;10.18;;;7.40;99.90;;;;;;5108454;28;20060;-46
2023/03/06 09:43:34;;;;;;;14.40;8.80;;;7.30;99.90;;;;;;5112961;28;20480;-45
2023/03/06 09:46:05;;;;;;;13.35;8.45;;;7.40;99.90;;;;;;5113480;27;20024;-45
2023/03/06 09:49:09;;;;;;;14.18;9.18;;;7.30;99.90;;;;;;5112829;28;20027;-45
2023/03/06 09:51:56;;;;;;;12.38;7.85;;;7.10;99.90;;;;;;5093062;28;20028;-46
2023/03/06 09:54:41;;;;;;;12.55;8.07;;;7.10;99.90;;;;;;5108597;28;20032;-45
2023/03/06 09:57:29;;;;;;;13.07;8.20;;;7.00;99.90;;;;;;5110513;28;20100;-46
2023/03/06 09:59:59;;;;;;;11.07;7.63;;;6.90;99.90;;;;;;5107843;28;20020;-48
2023/03/06 10:02:37;;;;;;;11.90;8.00;;;6.80;99.90;;;;;;5110874;28;20024;-46
2023/03/06 10:05:09;;;;;;;11.88;7.68;;;6.70;99.90;;;;;;5102178;28;20100;-48
2023/03/06 10:07:52;;;;;;;11.57;7.20;;;6.70;99.90;;;;;;5103531;28;20597;-45
2023/03/06 10:10:24;;;;;;;11.13;7.07;;;6.60;99.90;;;;;;5095356;28;20039;-47
2023/03/06 10:13:12;;;;;;;12.15;7.57;;;6.60;99.90;;;;;;5101680;27;20024;-46
2023/03/06 10:15:42;;;;;;;13.00;7.68;;;6.60;99.90;;;;;;5107353;28;20483;-46
2023/03/06 10:18:10;;;;;;;14.43;7.32;;;6.60;99.90;;;;;;5103342;27;20020;-44
2023/03/06 10:20:45;;;;;;;11.45;7.22;;;6.70;99.90;;;;;;5106100;27;20020;-43
2023/03/06 10:23:30;;;;;;;11.68;6.85;;;6.90;99.90;;;;;;5108710;28;20024;-44
2023/03/06 10:26:11;;;;;;;10.23;6.10;;;7.00;99.90;;;;;;5107375;27;20440;-45
2023/03/06 10:28:45;;;;;;;9.60;6.05;;;7.10;99.90;;;;;;5117778;27;20032;-50
2023/03/06 10:31:24;;;;;;;9.45;5.93;;;7.20;99.90;;;;;;5105405;27;20052;-42
2023/03/06 10:34:22;;;;;;;11.00;5.53;;;7.30;99.90;;;;;;5110229;27;20040;-49
2023/03/06 10:36:49;;;;;;;8.30;5.82;;;7.50;99.90;;;;;;5107798;27;20024;-45
2023/03/06 10:39:20;;;;;;;12.77;5.88;;;7.60;99.90;;;;;;5102753;28;20023;-49
2023/03/06 10:41:47;;;;;;;10.73;6.13;;;7.70;99.90;;;;;;5105632;27;20023;-45
2023/03/06 10:44:13;;;;;;;12.43;6.90;;;7.80;99.90;;;;;;5106627;27;20131;-45
2023/03/06 10:46:43;;;;;;;12.05;7.65;;;7.80;99.90;;;;;;5103657;27;20050;-46
2023/03/06 10:49:22;;;;;;;12.77;7.68;;;7.70;99.90;;;;;;5107408;27;20023;-47
2023/03/06 10:52:05;;;;;;;14.20;8.15;;;7.70;99.90;;;;;;5102530;27;20024;-46
2023/03/06 10:54:40;;;;;;;12.48;7.88;;;7.60;99.90;;;;;;5103991;27;20032;-45
2023/03/06 10:57:24;;;;;;;11.75;8.02;;;7.60;99.90;;;;;;5101285;28;20029;-48
2023/03/06 10:59:53;;;;;;;14.00;8.85;;;7.60;99.90;;;;;;5104728;28;20066;-50
2023/03/06 11:02:31;;;;;;;16.23;9.15;;;7.60;99.90;;;;;;5099480;28;20067;-49
2023/03/06 11:04:59;;;;;;;14.32;9.63;;;7.60;99.90;;;;;;5105743;28;20104;-46
2023/03/06 11:07:33;;;;;;;13.63;9.73;;;7.60;99.90;;;;;;5101630;27;20031;-51
2023/03/06 11:10:03;;;;;;;17.75;10.68;;;7.70;99.90;;;;;;5104692;27;20080;-45
2023/03/06 11:12:31;;;;;;;;;;;7.80;99.90;;;;;;5104927;27;20099;-48
2023/03/06 11:15:08;;;;;;;15.43;9.55;;;8.00;99.90;;;;;;5108227;28;20521;-45
2023/03/06 11:17:54;;;;;;;14.02;9.27;;;8.00;99.90;;;;;;5108728;28;20024;-49
2023/03/06 11:20:27;;;;;;;15.80;10.48;;;8.30;99.90;;;;;;5112133;28;20024;-44
2023/03/06 11:23:18;;;;;;;14.23;9.23;;;8.50;99.90;;;;;;5113570;28;20040;-50
2023/03/06 11:25:53;;;;;;;12.32;8.80;;;8.80;99.90;;;;;;5098261;28;20023;-43
2023/03/06 11:28:51;;;;;;;14.48;9.05;;;8.60;99.90;;;;;;5112669;28;20023;-49
2023/03/06 11:31:36;;;;;;;13.95;8.82;;;8.30;99.90;;;;;;5096192;28;20576;-50
2023/03/06 11:34:08;;;;;;;13.63;8.63;;;8.20;99.90;;;;;;5113380;27;20051;-49
2023/03/06 11:36:51;;;;;;;15.55;8.98;;;8.10;99.90;;;;;;5106028;27;20035;-49
2023/03/06 11:39:23;;;;;;;15.95;8.98;;;8.00;99.90;;;;;;5117562;27;20031;-53
2023/03/06 11:41:56;;;;;;;15.13;9.50;;;8.00;99.90;;;;;;5109249;27;20101;-47
2023/03/06 11:44:42;;;;;;;13.77;8.75;;;8.10;99.90;;;;;;5112637;28;20384;-45
2023/03/06 11:47:13;;;;;;;12.48;8.13;;;8.10;99.90;;;;;;5127174;27;20039;-45
2023/03/06 11:49:43;;;;;;;15.13;8.68;;;8.20;99.90;;;;;;5131767;27;20119;-50
2023/03/06 11:52:51;;;;;;;16.13;8.90;;;8.30;99.90;;;;;;5130460;27;20114;-45
2023/03/06 11:55:37;;;;;;;13.18;8.35;;;8.40;99.90;;;;;;5101886;27;20098;-46
2023/03/06 11:58:24;;;;;;;12.05;8.32;;;8.40;99.90;;;;;;5117653;27;20019;-48
2023/03/06 12:01:25;;;;;;;11.60;7.95;;;8.60;99.90;;;;;;5116960;27;20026;-44
2023/03/06 12:04:09;;;;;;;13.88;8.07;;;8.50;99.90;;;;;;5111211;27;20023;-44
2023/03/06 12:06:53;;;;;;;14.10;7.63;;;8.60;99.90;;;;;;5117389;27;20031;-44
2023/03/06 12:09:26;;;;;;;12.27;7.55;;;8.80;99.90;;;;;;5120083;27;20036;-47
2023/03/06 12:12:03;;;;;;;14.50;8.77;;;9.00;99.90;;;;;;5109332;27;20097;-45
2023/03/06 12:14:50;;;;;;;11.60;7.47;;;9.10;99.90;;;;;;5103564;27;20026;-45
2023/03/06 12:17:28;;;;;;;12.57;7.30;;;9.10;99.90;;;;;;5104385;27;20024;-44
2023/03/06 12:20:17;;;;;;;16.38;7.85;;;9.30;99.90;;;;;;5112737;27;20114;-45
2023/03/06 12:22:50;;;;;;;12.97;6.90;;;9.40;99.90;;;;;;5103236;27;20084;-44
2023/03/06 12:25:27;;;;;;;12.00;7.22;;;9.60;99.90;;;;;;5112093;27;20031;-50
2023/03/06 12:27:59;;;;;;;12.75;7.25;;;9.60;99.90;;;;;;5112484;27;20146;-45
2023/03/06 12:30:53;;;;;;;9.63;6.45;;;9.70;99.90;;;;;;5120141;27;20047;-47
2023/03/06 12:33:25;;;;;;;11.27;6.38;;;9.70;99.90;;;;;;5108295;27;20044;-48
2023/03/06 12:35:57;;;;;;;10.68;6.93;;;9.70;99.90;;;;;;5096451;28;20054;-47
2023/03/06 12:38:30;;;;;;;12.00;6.55;;;9.50;99.90;;;;;;5114820;27;20084;-46
2023/03/06 12:41:16;;;;;;;12.98;6.60;;;9.20;99.90;;;;;;5121562;27;20536;-44
2023/03/06 12:44:03;;;;;;;10.35;6.75;;;9.20;99.90;;;;;;5111014;27;20031;-49
2023/03/06 12:46:29;;;;;;;11.82;6.53;;;9.10;99.90;;;;;;5126631;27;20416;-47
2023/03/06 12:49:26;;;;;;;10.50;6.22;;;9.00;99.90;;;;;;5128987;27;20038;-45
2023/03/06 12:51:53;;;;;;;11.10;6.22;;;9.10;99.90;;;;;;5099665;27;20036;-46